createdAt,value
2023-05-02T00:00:44.727Z,0.00
2023-05-02T00:01:44.713Z,0.00
2023-05-02T00:02:44.811Z,0.00
2023-05-02T00:03:44.755Z,0.00
2023-05-02T00:04:44.684Z,0.00
2023-05-02T00:05:44.654Z,0.00
2023-05-02T00:06:44.699Z,0.00
2023-05-02T00:07:44.623Z,0.00
2023-05-02T00:08:44.618Z,0.00
2023-05-02T00:09:44.623Z,0.00
2023-05-02T00:10:44.613Z,0.00
2023-05-02T00:11:44.621Z,0.00
2023-05-02T00:12:44.571Z,0.00
2023-05-02T00:13:44.541Z,0.00
2023-05-02T00:14:44.551Z,0.00
2023-05-02T00:15:44.550Z,0.00
2023-05-02T00:16:44.631Z,0.00
2023-05-02T00:17:44.595Z,0.00
2023-05-02T00:18:44.489Z,0.00
2023-05-02T00:19:44.482Z,0.00
2023-05-02T00:20:44.460Z,0.00
2023-05-02T00:21:44.482Z,0.00
2023-05-02T00:22:44.451Z,0.00
2023-05-02T00:23:44.430Z,0.00
2023-05-02T00:24:44.423Z,0.00
2023-05-02T00:25:44.425Z,0.00
2023-05-02T00:26:44.462Z,0.00
2023-05-02T00:27:44.396Z,0.00
2023-05-02T00:28:44.380Z,0.00
2023-05-02T00:29:44.377Z,0.00
2023-05-02T00:30:44.394Z,0.00
2023-05-02T00:31:44.413Z,0.00
2023-05-02T00:32:44.379Z,0.00
2023-05-02T00:33:44.339Z,0.00
2023-05-02T00:34:44.334Z,0.00
2023-05-02T00:35:44.323Z,0.00
2023-05-02T00:36:44.314Z,0.00
2023-05-02T00:37:44.292Z,0.00
2023-05-02T00:38:44.254Z,0.00
2023-05-02T00:39:44.246Z,0.00
2023-05-02T00:40:44.226Z,0.00
2023-05-02T00:41:44.277Z,0.00
2023-05-02T00:42:44.211Z,0.00
2023-05-02T00:43:44.231Z,0.00
2023-05-02T00:44:44.184Z,0.00
2023-05-02T00:45:44.196Z,0.00
2023-05-02T00:46:44.265Z,0.00
2023-05-02T00:47:44.206Z,0.00
2023-05-02T00:48:44.156Z,0.00
2023-05-02T00:49:44.142Z,0.00
2023-05-02T00:50:44.115Z,0.00
2023-05-02T00:51:44.152Z,0.00
2023-05-02T00:52:44.098Z,0.00
2023-05-02T00:53:44.117Z,0.00
2023-05-02T00:54:44.107Z,0.00
2023-05-02T00:55:44.067Z,0.00
2023-05-02T00:56:44.106Z,0.00
2023-05-02T00:57:44.089Z,0.00
2023-05-02T00:58:44.054Z,0.00
2023-05-02T00:59:44.050Z,0.00
2023-05-02T01:00:44.037Z,0.00
2023-05-02T01:01:44.117Z,0.00
2023-05-02T01:02:44.142Z,0.00
2023-05-02T01:03:44.038Z,0.00
2023-05-02T01:04:43.962Z,0.00
2023-05-02T01:05:43.968Z,0.00
2023-05-02T01:06:44.014Z,0.00
2023-05-02T01:07:43.958Z,0.00
2023-05-02T01:08:43.920Z,0.00
2023-05-02T01:09:43.931Z,0.00
2023-05-02T01:10:43.908Z,0.00
2023-05-02T01:11:43.933Z,0.00
2023-05-02T01:12:43.881Z,0.00
2023-05-02T01:13:43.867Z,0.00
2023-05-02T01:14:43.847Z,0.00
2023-05-02T01:15:43.896Z,0.00
2023-05-02T01:16:43.988Z,0.00
2023-05-02T01:17:43.863Z,0.00
2023-05-02T01:18:43.803Z,0.00
2023-05-02T01:19:43.787Z,0.00
2023-05-02T01:20:43.779Z,0.00
2023-05-02T01:21:43.834Z,0.00
2023-05-02T01:22:43.777Z,0.00
2023-05-02T01:23:43.744Z,0.00
2023-05-02T01:24:43.757Z,0.00
2023-05-02T01:25:43.729Z,0.00
2023-05-02T01:26:43.750Z,0.00
2023-05-02T01:27:43.735Z,0.00
2023-05-02T01:28:43.706Z,0.00
2023-05-02T01:29:43.680Z,0.00
2023-05-02T01:30:43.679Z,0.00
2023-05-02T01:31:43.833Z,0.00
2023-05-02T01:32:43.678Z,0.00
2023-05-02T01:33:43.654Z,0.00
2023-05-02T01:34:43.669Z,0.00
2023-05-02T01:35:43.631Z,0.00
2023-05-02T01:36:43.658Z,0.00
2023-05-02T01:37:43.607Z,0.00
2023-05-02T01:38:43.600Z,0.00
2023-05-02T01:39:43.582Z,0.00
2023-05-02T01:40:43.573Z,0.00
2023-05-02T01:41:43.594Z,0.00
2023-05-02T01:42:43.580Z,0.00
2023-05-02T01:43:43.549Z,0.00
2023-05-02T01:44:43.550Z,0.00
2023-05-02T01:45:43.493Z,0.00
2023-05-02T01:46:43.572Z,0.00
2023-05-02T01:47:43.545Z,0.00
2023-05-02T01:48:43.466Z,0.00
2023-05-02T01:49:43.479Z,0.00
2023-05-02T01:50:43.433Z,0.00
2023-05-02T01:51:43.509Z,0.00
2023-05-02T01:52:43.416Z,0.00
2023-05-02T01:53:43.425Z,0.00
2023-05-02T01:54:43.414Z,0.00
2023-05-02T01:55:43.403Z,0.00
2023-05-02T01:56:43.455Z,0.00
2023-05-02T01:57:43.415Z,0.00
2023-05-02T01:58:43.362Z,0.00
2023-05-02T01:59:43.385Z,0.00
2023-05-02T02:00:43.386Z,0.00
2023-05-02T02:01:43.602Z,0.00
2023-05-02T02:02:43.337Z,0.00
2023-05-02T02:03:43.371Z,0.00
2023-05-02T02:04:43.389Z,0.00
2023-05-02T02:05:43.308Z,0.00
2023-05-02T02:06:43.332Z,0.00
2023-05-02T02:07:43.268Z,0.00
2023-05-02T02:08:43.250Z,0.00
2023-05-02T02:09:43.259Z,0.00
2023-05-02T02:10:43.234Z,0.00
2023-05-02T02:11:43.271Z,0.00
2023-05-02T02:12:43.219Z,0.00
2023-05-02T02:13:43.219Z,0.00
2023-05-02T02:14:43.190Z,0.00
2023-05-02T02:15:43.181Z,0.00
2023-05-02T02:16:43.227Z,0.00
2023-05-02T02:17:43.170Z,0.00
2023-05-02T02:18:43.136Z,0.00
2023-05-02T02:19:43.123Z,0.00
2023-05-02T02:20:43.132Z,0.00
2023-05-02T02:21:43.151Z,0.00
2023-05-02T02:22:43.134Z,0.00
2023-05-02T02:23:43.092Z,0.00
2023-05-02T02:24:43.081Z,0.00
2023-05-02T02:25:43.101Z,0.00
2023-05-02T02:26:43.088Z,0.00
2023-05-02T02:27:43.049Z,0.00
2023-05-02T02:28:43.038Z,0.00
2023-05-02T02:29:43.053Z,0.00
2023-05-02T02:30:43.054Z,0.00
2023-05-02T02:31:43.039Z,0.00
2023-05-02T02:32:42.992Z,0.00
2023-05-02T02:33:42.955Z,0.00
2023-05-02T02:34:42.973Z,0.00
2023-05-02T02:35:42.934Z,0.00
2023-05-02T02:36:42.966Z,0.00
2023-05-02T02:37:42.919Z,0.00
2023-05-02T02:38:42.922Z,0.00
2023-05-02T02:39:42.895Z,0.00
2023-05-02T02:40:42.893Z,0.00
2023-05-02T02:41:43.074Z,0.00
2023-05-02T02:42:42.880Z,0.00
2023-05-02T02:43:42.890Z,0.00
2023-05-02T02:44:42.819Z,0.00
2023-05-02T02:45:42.819Z,0.00
2023-05-02T02:46:42.942Z,0.00
2023-05-02T02:47:42.941Z,0.00
2023-05-02T02:48:42.806Z,0.00
2023-05-02T02:49:42.794Z,0.00
2023-05-02T02:50:42.790Z,0.00
2023-05-02T02:51:42.762Z,0.00
2023-05-02T02:52:42.811Z,0.00
2023-05-02T02:53:42.754Z,0.00
2023-05-02T02:54:42.717Z,0.00
2023-05-02T02:55:42.731Z,0.00
2023-05-02T02:56:42.700Z,0.00
2023-05-02T02:57:42.730Z,0.00
2023-05-02T02:58:42.688Z,0.00
2023-05-02T02:59:42.674Z,0.00
2023-05-02T03:00:42.662Z,0.00
2023-05-02T03:01:42.659Z,0.00
2023-05-02T03:02:42.739Z,0.00
2023-05-02T03:03:42.647Z,0.00
2023-05-02T03:04:42.619Z,0.00
2023-05-02T03:05:42.602Z,0.00
2023-05-02T03:06:42.692Z,0.00
2023-05-02T03:07:42.660Z,0.00
2023-05-02T03:08:42.570Z,0.00
2023-05-02T03:09:42.577Z,0.00
2023-05-02T03:10:42.561Z,0.00
2023-05-02T03:11:42.532Z,0.00
2023-05-02T03:12:42.568Z,0.00
2023-05-02T03:13:42.487Z,0.00
2023-05-02T03:14:42.491Z,0.00
2023-05-02T03:15:42.500Z,0.00
2023-05-02T03:16:42.545Z,0.00
2023-05-02T03:17:42.582Z,0.00
2023-05-02T03:18:42.482Z,0.00
2023-05-02T03:19:42.513Z,0.00
2023-05-02T03:20:42.441Z,0.00
2023-05-02T03:21:42.426Z,0.00
2023-05-02T03:22:42.455Z,0.00
2023-05-02T03:23:42.419Z,0.00
2023-05-02T03:24:42.394Z,0.00
2023-05-02T03:25:42.380Z,5.62
2023-05-02T03:26:42.371Z,5.62
2023-05-02T03:27:42.393Z,5.62
2023-05-02T03:28:42.372Z,5.62
2023-05-02T03:29:42.338Z,5.62
2023-05-02T03:30:42.324Z,5.62
2023-05-02T03:31:42.424Z,5.62
2023-05-02T03:32:42.376Z,11.25
2023-05-02T03:33:42.281Z,11.25
2023-05-02T03:34:42.291Z,11.25
2023-05-02T03:35:42.251Z,11.25
2023-05-02T03:36:42.242Z,11.25
2023-05-02T03:37:42.282Z,16.88
2023-05-02T03:38:42.252Z,16.88
2023-05-02T03:39:42.230Z,16.88
2023-05-02T03:40:42.221Z,16.88
2023-05-02T03:41:42.175Z,22.50
2023-05-02T03:42:42.207Z,22.50
2023-05-02T03:43:42.148Z,22.50
2023-05-02T03:44:42.141Z,28.12
2023-05-02T03:45:42.157Z,28.12
2023-05-02T03:46:42.202Z,28.12
2023-05-02T03:47:42.197Z,33.75
2023-05-02T03:48:42.151Z,33.75
2023-05-02T03:49:42.117Z,39.38
2023-05-02T03:50:42.085Z,39.38
2023-05-02T03:51:42.080Z,45.00
2023-05-02T03:52:42.106Z,50.62
2023-05-02T03:53:42.086Z,50.62
2023-05-02T03:54:42.073Z,56.25
2023-05-02T03:55:42.051Z,61.88
2023-05-02T03:56:42.906Z,67.50
2023-05-02T03:57:42.047Z,73.12
2023-05-02T03:58:42.012Z,73.12
2023-05-02T03:59:41.973Z,78.75
2023-05-02T04:00:41.998Z,84.38
2023-05-02T04:01:42.000Z,90.00
2023-05-02T04:02:42.083Z,95.62
2023-05-02T04:03:41.996Z,101.25
2023-05-02T04:04:42.048Z,106.88
2023-05-02T04:05:41.917Z,112.50
2023-05-02T04:06:41.965Z,112.50
2023-05-02T04:07:41.933Z,118.12
2023-05-02T04:08:41.888Z,118.12
2023-05-02T04:09:41.891Z,123.75
2023-05-02T04:10:41.846Z,129.38
2023-05-02T04:11:41.857Z,129.38
2023-05-02T04:12:41.833Z,135.00
2023-05-02T04:13:41.863Z,140.62
2023-05-02T04:14:41.832Z,146.25
2023-05-02T04:15:41.798Z,151.88
2023-05-02T04:16:41.814Z,157.50
2023-05-02T04:17:41.813Z,157.50
2023-05-02T04:18:41.811Z,163.12
2023-05-02T04:19:41.740Z,168.75
2023-05-02T04:20:41.754Z,180.00
2023-05-02T04:21:41.738Z,185.62
2023-05-02T04:22:41.749Z,202.50
2023-05-02T04:23:41.763Z,213.75
2023-05-02T04:24:41.709Z,225.00
2023-05-02T04:25:41.691Z,225.00
2023-05-02T04:26:41.697Z,213.75
2023-05-02T04:27:41.677Z,225.00
2023-05-02T04:28:41.687Z,236.25
2023-05-02T04:29:41.635Z,241.88
2023-05-02T04:30:41.673Z,253.12
2023-05-02T04:31:41.611Z,258.75
2023-05-02T04:32:41.632Z,258.75
2023-05-02T04:33:41.633Z,258.75
2023-05-02T04:34:41.606Z,258.75
2023-05-02T04:35:41.576Z,258.75
2023-05-02T04:36:41.585Z,258.75
2023-05-02T04:37:41.557Z,264.38
2023-05-02T04:38:41.600Z,270.00
2023-05-02T04:39:41.564Z,270.00
2023-05-02T04:40:41.544Z,270.00
2023-05-02T04:41:41.524Z,275.62
2023-05-02T04:42:41.491Z,270.00
2023-05-02T04:43:41.525Z,264.38
2023-05-02T04:44:41.487Z,264.38
2023-05-02T04:45:41.474Z,264.38
2023-05-02T04:46:41.505Z,264.38
2023-05-02T04:47:41.528Z,270.00
2023-05-02T04:48:41.469Z,270.00
2023-05-02T04:49:41.406Z,281.25
2023-05-02T04:50:41.410Z,286.88
2023-05-02T04:51:41.383Z,286.88
2023-05-02T04:52:41.421Z,292.50
2023-05-02T04:53:41.417Z,303.75
2023-05-02T04:54:41.354Z,315.00
2023-05-02T04:55:41.363Z,337.50
2023-05-02T04:56:41.345Z,348.75
2023-05-02T04:57:41.330Z,371.25
2023-05-02T04:58:41.373Z,393.75
2023-05-02T04:59:41.316Z,416.25
2023-05-02T05:00:41.301Z,444.38
2023-05-02T05:01:41.353Z,472.50
2023-05-02T05:02:41.321Z,489.38
2023-05-02T05:03:41.415Z,500.62
2023-05-02T05:04:41.263Z,511.88
2023-05-02T05:05:41.261Z,528.75
2023-05-02T05:06:41.278Z,528.75
2023-05-02T05:07:41.225Z,534.38
2023-05-02T05:08:41.269Z,528.75
2023-05-02T05:09:41.209Z,534.38
2023-05-02T05:10:41.192Z,556.88
2023-05-02T05:11:41.151Z,585.00
2023-05-02T05:12:41.160Z,601.88
2023-05-02T05:13:41.328Z,601.88
2023-05-02T05:14:41.139Z,624.38
2023-05-02T05:15:41.125Z,663.75
2023-05-02T05:16:41.234Z,686.25
2023-05-02T05:17:41.132Z,697.50
2023-05-02T05:18:41.131Z,691.88
2023-05-02T05:19:41.146Z,675.00
2023-05-02T05:20:41.081Z,680.62
2023-05-02T05:21:41.067Z,686.25
2023-05-02T05:22:41.066Z,680.62
2023-05-02T05:23:41.033Z,675.00
2023-05-02T05:24:41.052Z,658.12
2023-05-02T05:25:41.527Z,641.25
2023-05-02T05:26:40.997Z,618.75
2023-05-02T05:27:41.143Z,607.50
2023-05-02T05:28:40.961Z,601.88
2023-05-02T05:29:41.021Z,596.25
2023-05-02T05:30:40.964Z,590.62
2023-05-02T05:31:40.995Z,573.75
2023-05-02T05:32:41.045Z,562.50
2023-05-02T05:33:40.994Z,545.62
2023-05-02T05:34:40.960Z,534.38
2023-05-02T05:35:40.901Z,528.75
2023-05-02T05:36:40.894Z,534.38
2023-05-02T05:37:40.859Z,540.00
2023-05-02T05:38:40.868Z,534.38
2023-05-02T05:39:40.916Z,511.88
2023-05-02T05:40:40.842Z,489.38
2023-05-02T05:41:40.832Z,478.12
2023-05-02T05:42:40.815Z,472.50
2023-05-02T05:43:40.846Z,466.88
2023-05-02T05:44:40.876Z,472.50
2023-05-02T05:45:40.797Z,489.38
2023-05-02T05:46:40.821Z,511.88
2023-05-02T05:47:40.872Z,534.38
2023-05-02T05:48:40.760Z,545.62
2023-05-02T05:49:40.777Z,551.25
2023-05-02T05:50:40.731Z,545.62
2023-05-02T05:51:40.728Z,540.00
2023-05-02T05:52:40.705Z,534.38
2023-05-02T05:53:40.719Z,523.12
2023-05-02T05:54:40.743Z,517.50
2023-05-02T05:55:42.181Z,523.12
2023-05-02T05:56:40.685Z,523.12
2023-05-02T05:57:40.660Z,528.75
2023-05-02T05:58:40.644Z,540.00
2023-05-02T05:59:40.680Z,545.62
2023-05-02T06:00:40.624Z,562.50
2023-05-02T06:01:40.599Z,573.75
2023-05-02T06:02:40.719Z,596.25
2023-05-02T06:03:40.753Z,590.62
2023-05-02T06:04:40.675Z,618.75
2023-05-02T06:05:40.569Z,624.38
2023-05-02T06:06:40.612Z,630.00
2023-05-02T06:07:40.539Z,630.00
2023-05-02T06:08:40.532Z,630.00
2023-05-02T06:09:40.545Z,613.12
2023-05-02T06:10:40.515Z,601.88
2023-05-02T06:11:40.493Z,607.50
2023-05-02T06:12:40.527Z,607.50
2023-05-02T06:13:40.458Z,601.88
2023-05-02T06:14:40.494Z,624.38
2023-05-02T06:15:40.500Z,652.50
2023-05-02T06:16:40.544Z,646.88
2023-05-02T06:17:40.511Z,646.88
2023-05-02T06:18:40.403Z,646.88
2023-05-02T06:19:40.451Z,641.25
2023-05-02T06:20:40.400Z,646.88
2023-05-02T06:21:40.398Z,646.88
2023-05-02T06:22:40.403Z,663.75
2023-05-02T06:23:41.233Z,669.38
2023-05-02T06:24:40.397Z,697.50
2023-05-02T06:25:40.326Z,714.38
2023-05-02T06:26:40.379Z,720.00
2023-05-02T06:27:40.373Z,714.38
2023-05-02T06:28:40.331Z,725.62
2023-05-02T06:29:40.361Z,781.88
2023-05-02T06:30:40.286Z,815.62
2023-05-02T06:31:40.311Z,838.12
2023-05-02T06:32:40.270Z,888.75
2023-05-02T06:33:40.259Z,900.00
2023-05-02T06:34:40.270Z,911.25
2023-05-02T06:35:40.246Z,961.88
2023-05-02T06:36:40.219Z,984.38
2023-05-02T06:37:40.229Z,1001.25
2023-05-02T06:38:40.178Z,1018.12
2023-05-02T06:39:40.217Z,1001.25
2023-05-02T06:40:40.159Z,995.62
2023-05-02T06:41:40.170Z,984.38
2023-05-02T06:42:40.155Z,950.62
2023-05-02T06:43:40.145Z,978.75
2023-05-02T06:44:40.153Z,1018.12
2023-05-02T06:45:40.126Z,1085.62
2023-05-02T06:46:40.162Z,1102.50
2023-05-02T06:47:40.163Z,1113.75
2023-05-02T06:48:40.085Z,1096.88
2023-05-02T06:49:40.114Z,1125.00
2023-05-02T06:50:40.062Z,1136.25
2023-05-02T06:51:40.066Z,1108.12
2023-05-02T06:52:40.041Z,1068.75
2023-05-02T06:53:40.056Z,1046.25
2023-05-02T06:54:40.180Z,1046.25
2023-05-02T06:55:39.992Z,1040.62
2023-05-02T06:56:39.987Z,1029.38
2023-05-02T06:57:40.022Z,1046.25
2023-05-02T06:58:39.995Z,1057.50
2023-05-02T06:59:39.977Z,1091.25
2023-05-02T07:00:40.013Z,1113.75
2023-05-02T07:01:39.995Z,1108.12
2023-05-02T07:02:39.963Z,1130.62
2023-05-02T07:03:39.998Z,1085.62
2023-05-02T07:04:39.989Z,1006.88
2023-05-02T07:05:39.934Z,933.75
2023-05-02T07:06:39.890Z,877.50
2023-05-02T07:07:39.872Z,821.25
2023-05-02T07:08:39.837Z,787.50
2023-05-02T07:09:39.873Z,759.38
2023-05-02T07:10:39.885Z,736.88
2023-05-02T07:11:39.837Z,714.38
2023-05-02T07:12:39.831Z,680.62
2023-05-02T07:13:39.827Z,658.12
2023-05-02T07:14:39.786Z,641.25
2023-05-02T07:15:39.792Z,624.38
2023-05-02T07:16:39.832Z,613.12
2023-05-02T07:17:39.844Z,601.88
2023-05-02T07:18:39.748Z,596.25
2023-05-02T07:19:39.748Z,596.25
2023-05-02T07:20:39.758Z,601.88
2023-05-02T07:21:39.694Z,618.75
2023-05-02T07:22:39.691Z,646.88
2023-05-02T07:23:39.703Z,697.50
2023-05-02T07:24:39.690Z,748.12
2023-05-02T07:25:39.701Z,804.38
2023-05-02T07:26:39.676Z,883.12
2023-05-02T07:27:39.632Z,961.88
2023-05-02T07:28:39.629Z,1074.38
2023-05-02T07:29:39.630Z,1181.25
2023-05-02T07:30:39.660Z,1260.00
2023-05-02T07:31:39.648Z,1321.88
2023-05-02T07:32:39.661Z,1434.38
2023-05-02T07:33:39.560Z,1496.25
2023-05-02T07:34:39.548Z,1462.50
2023-05-02T07:35:39.597Z,1473.75
2023-05-02T07:36:39.526Z,1440.00
2023-05-02T07:37:39.531Z,1316.25
2023-05-02T07:38:39.515Z,1248.75
2023-05-02T07:39:39.531Z,1220.62
2023-05-02T07:40:39.539Z,1186.88
2023-05-02T07:41:39.511Z,1147.50
2023-05-02T07:42:39.482Z,1074.38
2023-05-02T07:43:39.518Z,1001.25
2023-05-02T07:44:39.473Z,900.00
2023-05-02T07:45:39.486Z,815.62
2023-05-02T07:46:39.524Z,759.38
2023-05-02T07:47:39.468Z,714.38
2023-05-02T07:48:39.421Z,675.00
2023-05-02T07:49:39.421Z,646.88
2023-05-02T07:50:39.429Z,613.12
2023-05-02T07:51:39.426Z,585.00
2023-05-02T07:52:39.380Z,568.12
2023-05-02T07:53:39.353Z,573.75
2023-05-02T07:54:39.348Z,596.25
2023-05-02T07:55:39.375Z,630.00
2023-05-02T07:56:39.367Z,663.75
2023-05-02T07:57:39.326Z,691.88
2023-05-02T07:58:39.302Z,703.12
2023-05-02T07:59:39.303Z,703.12
2023-05-02T08:00:39.340Z,708.75
2023-05-02T08:01:39.277Z,731.25
2023-05-02T08:02:39.294Z,759.38
2023-05-02T08:03:39.391Z,804.38
2023-05-02T08:04:39.279Z,888.75
2023-05-02T08:05:39.261Z,961.88
2023-05-02T08:06:39.290Z,1001.25
2023-05-02T08:07:39.225Z,1006.88
2023-05-02T08:08:39.180Z,1012.50
2023-05-02T08:09:39.178Z,1012.50
2023-05-02T08:10:39.213Z,1051.88
2023-05-02T08:11:39.167Z,1108.12
2023-05-02T08:12:39.140Z,1147.50
2023-05-02T08:13:39.155Z,1175.62
2023-05-02T08:14:39.139Z,1158.75
2023-05-02T08:15:39.229Z,1164.38
2023-05-02T08:16:39.174Z,1125.00
2023-05-02T08:17:39.151Z,1271.25
2023-05-02T08:18:39.081Z,1164.38
2023-05-02T08:19:39.076Z,1226.25
2023-05-02T08:20:39.096Z,1355.62
2023-05-02T08:21:39.064Z,1198.12
2023-05-02T08:22:39.052Z,1254.38
2023-05-02T08:23:39.012Z,1276.88
2023-05-02T08:24:39.018Z,1310.62
2023-05-02T08:25:39.038Z,1378.12
2023-05-02T08:26:38.974Z,1434.38
2023-05-02T08:27:38.984Z,1316.25
2023-05-02T08:28:38.993Z,1293.75
2023-05-02T08:29:38.968Z,1276.88
2023-05-02T08:30:38.962Z,1473.75
2023-05-02T08:31:39.000Z,1411.88
2023-05-02T08:32:38.935Z,1265.62
2023-05-02T08:33:38.900Z,1456.88
2023-05-02T08:34:38.905Z,1591.88
2023-05-02T08:35:38.890Z,2058.75
2023-05-02T08:36:38.912Z,1603.12
2023-05-02T08:37:38.865Z,1974.38
2023-05-02T08:38:38.839Z,2300.62
2023-05-02T08:39:38.848Z,2368.12
2023-05-02T08:40:42.804Z,2334.38
2023-05-02T08:41:38.873Z,2503.12
2023-05-02T08:42:38.798Z,2587.50
2023-05-02T08:43:38.803Z,2261.25
2023-05-02T08:44:38.796Z,2058.75
2023-05-02T08:45:38.785Z,2131.88
2023-05-02T08:46:38.826Z,2216.25
2023-05-02T08:47:38.808Z,2210.62
2023-05-02T08:48:38.767Z,1805.62
2023-05-02T08:49:38.727Z,1524.38
2023-05-02T08:50:38.713Z,1417.50
2023-05-02T08:51:40.339Z,1456.88
2023-05-02T08:52:38.707Z,1648.12
2023-05-02T08:53:38.699Z,1704.38
2023-05-02T08:54:38.721Z,1710.00
2023-05-02T08:55:38.658Z,1890.00
2023-05-02T08:56:38.686Z,1614.38
2023-05-02T08:57:38.621Z,1788.75
2023-05-02T08:58:38.613Z,1816.88
2023-05-02T08:59:38.625Z,2491.88
2023-05-02T09:00:38.602Z,1771.88
2023-05-02T09:01:38.734Z,1648.12
2023-05-02T09:02:38.661Z,1603.12
2023-05-02T09:03:38.593Z,1597.50
2023-05-02T09:04:38.748Z,1479.38
2023-05-02T09:05:38.573Z,1366.88
2023-05-02T09:06:38.624Z,1327.50
2023-05-02T09:07:38.533Z,1355.62
2023-05-02T09:08:38.556Z,1338.75
2023-05-02T09:09:38.499Z,1389.38
2023-05-02T09:10:38.502Z,1490.62
2023-05-02T09:11:38.569Z,1670.62
2023-05-02T09:12:38.484Z,1878.75
2023-05-02T09:13:38.462Z,1946.25
2023-05-02T09:14:38.449Z,2126.25
2023-05-02T09:15:38.421Z,1918.12
2023-05-02T09:16:38.514Z,1710.00
2023-05-02T09:17:38.472Z,1693.12
2023-05-02T09:18:38.384Z,1620.00
2023-05-02T09:19:38.442Z,1569.38
2023-05-02T09:20:38.374Z,1507.50
2023-05-02T09:21:38.418Z,1473.75
2023-05-02T09:22:38.353Z,1485.00
2023-05-02T09:23:38.356Z,1535.62
2023-05-02T09:24:38.356Z,1642.50
2023-05-02T09:25:38.315Z,2019.38
2023-05-02T09:26:38.338Z,2424.38
2023-05-02T09:27:38.295Z,3363.75
2023-05-02T09:28:38.314Z,3588.75
2023-05-02T09:29:38.304Z,2475.00
2023-05-02T09:30:38.295Z,1912.50
2023-05-02T09:32:38.262Z,1890.00
2023-05-02T09:33:38.225Z,2092.50
2023-05-02T09:34:38.263Z,2306.25
2023-05-02T09:35:38.208Z,2941.88
2023-05-02T09:36:38.213Z,2278.12
2023-05-02T09:37:38.180Z,2289.38
2023-05-02T09:38:38.191Z,2379.38
2023-05-02T09:39:38.205Z,2221.88
2023-05-02T09:40:38.152Z,2137.50
2023-05-02T09:41:38.131Z,1890.00
2023-05-02T09:42:38.229Z,1794.38
2023-05-02T09:43:38.123Z,1822.50
2023-05-02T09:44:38.148Z,2058.75
2023-05-02T09:45:38.114Z,2278.12
2023-05-02T09:46:38.222Z,2261.25
2023-05-02T09:47:38.241Z,2671.88
2023-05-02T09:48:38.063Z,2160.00
2023-05-02T09:49:38.055Z,2475.00
2023-05-02T09:50:38.173Z,2880.00
2023-05-02T09:51:38.043Z,2300.62
2023-05-02T09:52:38.060Z,2227.50
2023-05-02T09:53:38.021Z,3521.25
2023-05-02T09:54:37.995Z,2210.62
2023-05-02T09:55:37.970Z,2131.88
2023-05-02T09:56:37.997Z,2160.00
2023-05-02T09:57:38.036Z,2345.62
2023-05-02T09:58:37.953Z,3234.38
2023-05-02T09:59:37.940Z,1923.75
2023-05-02T10:00:37.928Z,1721.25
2023-05-02T10:01:38.000Z,1620.00
2023-05-02T10:02:38.013Z,1479.38
2023-05-02T10:03:38.041Z,1350.00
2023-05-02T10:04:38.096Z,1276.88
2023-05-02T10:05:37.920Z,1248.75
2023-05-02T10:06:37.949Z,1203.75
2023-05-02T10:07:37.909Z,1141.88
2023-05-02T10:08:37.833Z,1085.62
2023-05-02T10:09:37.840Z,1040.62
2023-05-02T10:10:37.832Z,1001.25
2023-05-02T10:11:37.811Z,967.50
2023-05-02T10:12:37.874Z,928.12
2023-05-02T10:13:37.795Z,905.62
2023-05-02T10:14:37.782Z,877.50
2023-05-02T10:15:37.850Z,849.38
2023-05-02T10:16:37.753Z,826.88
2023-05-02T10:17:37.831Z,815.62
2023-05-02T10:18:37.718Z,810.00
2023-05-02T10:19:37.721Z,804.38
2023-05-02T10:20:37.787Z,781.88
2023-05-02T10:21:37.683Z,765.00
2023-05-02T10:22:37.740Z,736.88
2023-05-02T10:23:37.678Z,714.38
2023-05-02T10:24:37.682Z,697.50
2023-05-02T10:25:37.683Z,675.00
2023-05-02T10:26:37.669Z,663.75
2023-05-02T10:27:37.686Z,646.88
2023-05-02T10:28:37.621Z,635.62
2023-05-02T10:29:37.642Z,618.75
2023-05-02T10:30:37.615Z,607.50
2023-05-02T10:31:37.765Z,596.25
2023-05-02T10:32:37.694Z,596.25
2023-05-02T10:33:37.570Z,585.00
2023-05-02T10:34:37.580Z,573.75
2023-05-02T10:35:37.539Z,556.88
2023-05-02T10:36:37.532Z,551.25
2023-05-02T10:37:37.578Z,562.50
2023-05-02T10:38:37.514Z,573.75
2023-05-02T10:39:38.356Z,590.62
2023-05-02T10:40:37.474Z,601.88
2023-05-02T10:41:37.477Z,618.75
2023-05-02T10:42:37.504Z,635.62
2023-05-02T10:43:37.476Z,652.50
2023-05-02T10:44:37.445Z,663.75
2023-05-02T10:45:37.451Z,669.38
2023-05-02T10:46:37.457Z,680.62
2023-05-02T10:47:37.456Z,691.88
2023-05-02T10:48:37.376Z,725.62
2023-05-02T10:49:37.412Z,742.50
2023-05-02T10:50:37.365Z,765.00
2023-05-02T10:51:37.354Z,798.75
2023-05-02T10:52:37.372Z,849.38
2023-05-02T10:53:37.327Z,911.25
2023-05-02T10:54:37.332Z,1006.88
2023-05-02T10:55:37.317Z,1130.62
2023-05-02T10:56:37.413Z,1327.50
2023-05-02T10:57:37.295Z,1636.88
2023-05-02T10:58:37.320Z,1755.00
2023-05-02T10:59:37.282Z,1535.62
2023-05-02T11:00:37.358Z,1535.62
2023-05-02T11:01:37.243Z,1648.12
2023-05-02T11:02:37.344Z,1743.75
2023-05-02T11:03:37.280Z,1704.38
2023-05-02T11:04:37.231Z,3701.25
2023-05-02T11:05:37.240Z,3802.50
2023-05-02T11:06:37.230Z,2981.25
2023-05-02T11:07:37.211Z,4151.25
2023-05-02T11:08:37.217Z,4100.62
2023-05-02T11:09:37.156Z,4117.50
2023-05-02T11:10:37.163Z,4573.12
2023-05-02T11:11:37.137Z,4483.12
2023-05-02T11:12:37.118Z,4500.00
2023-05-02T11:13:37.166Z,4753.12
2023-05-02T11:14:37.113Z,4753.12
2023-05-02T11:15:37.070Z,4815.00
2023-05-02T11:16:37.136Z,2441.25
2023-05-02T11:17:37.098Z,5208.75
2023-05-02T11:18:37.095Z,3498.75
2023-05-02T11:19:37.044Z,2570.62
2023-05-02T11:20:37.027Z,1800.00
2023-05-02T11:21:37.020Z,2070.00
2023-05-02T11:22:37.003Z,1631.25
2023-05-02T11:23:37.070Z,1518.75
2023-05-02T11:24:36.997Z,1175.62
2023-05-02T11:25:36.983Z,973.12
2023-05-02T11:26:36.967Z,894.38
2023-05-02T11:27:36.989Z,911.25
2023-05-02T11:28:37.000Z,1085.62
2023-05-02T11:29:36.932Z,1338.75
2023-05-02T11:30:36.937Z,1614.38
2023-05-02T11:31:36.924Z,1265.62
2023-05-02T11:32:37.797Z,1203.75
2023-05-02T11:33:37.094Z,1276.88
2023-05-02T11:34:36.898Z,1344.38
2023-05-02T11:35:36.894Z,1378.12
2023-05-02T11:36:36.976Z,1366.88
2023-05-02T11:37:36.838Z,1445.62
2023-05-02T11:38:36.846Z,1479.38
2023-05-02T11:39:36.838Z,1541.25
2023-05-02T11:40:36.827Z,1642.50
2023-05-02T11:41:36.803Z,1749.38
2023-05-02T11:42:36.803Z,1760.62
2023-05-02T11:43:36.766Z,1777.50
2023-05-02T11:44:36.798Z,1580.62
2023-05-02T11:45:36.738Z,1552.50
2023-05-02T11:46:36.852Z,1760.62
2023-05-02T11:47:36.751Z,1597.50
2023-05-02T11:48:36.717Z,1586.25
2023-05-02T11:49:36.768Z,2520.00
2023-05-02T11:50:36.856Z,1485.00
2023-05-02T11:51:36.680Z,1490.62
2023-05-02T11:52:36.684Z,3420.00
2023-05-02T11:53:36.674Z,3510.00
2023-05-02T11:54:36.698Z,3650.62
2023-05-02T11:55:36.629Z,3937.50
2023-05-02T11:56:36.643Z,3481.88
2023-05-02T11:57:36.609Z,3183.75
2023-05-02T11:58:36.677Z,2205.00
2023-05-02T11:59:36.706Z,1788.75
2023-05-02T12:00:36.584Z,1698.75
2023-05-02T12:01:36.594Z,1738.12
2023-05-02T12:02:36.664Z,1777.50
2023-05-02T12:03:36.698Z,1726.88
2023-05-02T12:04:36.548Z,1676.25
2023-05-02T12:05:36.572Z,1648.12
2023-05-02T12:06:36.543Z,1631.25
2023-05-02T12:07:36.535Z,1597.50
2023-05-02T12:08:36.565Z,1400.62
2023-05-02T12:09:36.494Z,1248.75
2023-05-02T12:10:36.482Z,1226.25
2023-05-02T12:11:36.456Z,1355.62
2023-05-02T12:12:36.459Z,3375.00
2023-05-02T12:13:36.455Z,3380.62
2023-05-02T12:14:36.539Z,2947.50
2023-05-02T12:15:36.433Z,3515.62
2023-05-02T12:16:36.435Z,1209.38
2023-05-02T12:17:36.415Z,1012.50
2023-05-02T12:18:36.400Z,877.50
2023-05-02T12:19:36.423Z,770.62
2023-05-02T12:20:36.375Z,680.62
2023-05-02T12:21:36.385Z,630.00
2023-05-02T12:22:36.362Z,601.88
2023-05-02T12:23:37.537Z,573.75
2023-05-02T12:24:36.395Z,568.12
2023-05-02T12:25:36.322Z,590.62
2023-05-02T12:26:36.305Z,601.88
2023-05-02T12:27:36.281Z,573.75
2023-05-02T12:28:36.313Z,540.00
2023-05-02T12:29:36.276Z,517.50
2023-05-02T12:30:36.295Z,500.62
2023-05-02T12:31:36.296Z,523.12
2023-05-02T12:32:36.274Z,585.00
2023-05-02T12:33:36.293Z,686.25
2023-05-02T12:34:36.227Z,838.12
2023-05-02T12:35:36.204Z,1029.38
2023-05-02T12:36:36.221Z,1271.25